sensor_id;sensor_type;location;lat;lon;timestamp;temperature;humidity
24436;DHT22;12616;52.470;13.436;2022-12-04T00:04:30;0.40;99.90
24436;DHT22;12616;52.470;13.436;2022-12-04T00:06:57;0.50;99.90
24436;DHT22;12616;52.470;13.436;2022-12-04T00:09:24;0.40;99.90
24436;DHT22;12616;52.470;13.436;2022-12-04T00:11:52;0.50;99.90
24436;DHT22;12616;52.470;13.436;2022-12-04T00:14:19;0.60;99.90
24436;DHT22;12616;52.470;13.436;2022-12-04T00:16:47;0.50;99.90
24436;DHT22;12616;52.470;13.436;2022-12-04T00:19:15;0.60;99.90
24436;DHT22;12616;52.470;13.436;2022-12-04T00:21:42;0.20;99.90
24436;DHT22;12616;52.470;13.436;2022-12-04T00:24:10;0.20;99.90
24436;DHT22;12616;52.470;13.436;2022-12-04T00:26:37;0.60;99.90
24436;DHT22;12616;52.470;13.436;2022-12-04T00:29:04;0.60;99.90
24436;DHT22;12616;52.470;13.436;2022-12-04T00:31:31;0.60;99.90
24436;DHT22;12616;52.470;13.436;2022-12-04T00:34:00;0.10;99.90
24436;DHT22;12616;52.470;13.436;2022-12-04T00:36:28;0.70;99.90
24436;DHT22;12616;52.470;13.436;2022-12-04T00:38:57;0.40;99.90
24436;DHT22;12616;52.470;13.436;2022-12-04T00:41:26;0.20;99.90
24436;DHT22;12616;52.470;13.436;2022-12-04T00:43:53;0.30;99.90
24436;DHT22;12616;52.470;13.436;2022-12-04T00:46:20;0.40;99.90
24436;DHT22;12616;52.470;13.436;2022-12-04T00:48:48;0.70;99.90
24436;DHT22;12616;52.470;13.436;2022-12-04T00:51:19;0.50;99.90
24436;DHT22;12616;52.470;13.436;2022-12-04T00:53:46;0.20;99.90
24436;DHT22;12616;52.470;13.436;2022-12-04T00:56:15;0.50;99.90
24436;DHT22;12616;52.470;13.436;2022-12-04T00:58:46;0.60;99.90
24436;DHT22;12616;52.470;13.436;2022-12-04T01:01:14;0.50;99.90
24436;DHT22;12616;52.470;13.436;2022-12-04T01:03:42;0.70;99.90
24436;DHT22;12616;52.470;13.436;2022-12-04T01:06:18;0.70;99.90
24436;DHT22;12616;52.470;13.436;2022-12-04T01:08:46;0.10;99.90
24436;DHT22;12616;52.470;13.436;2022-12-04T01:11:13;0.50;99.90
24436;DHT22;12616;52.470;13.436;2022-12-04T01:13:40;0.40;99.90
24436;DHT22;12616;52.470;13.436;2022-12-04T01:16:07;0.50;99.90
24436;DHT22;12616;52.470;13.436;2022-12-04T01:18:33;0.50;99.90
24436;DHT22;12616;52.470;13.436;2022-12-04T01:21:00;0.50;99.90
24436;DHT22;12616;52.470;13.436;2022-12-04T01:23:28;0.50;99.90
24436;DHT22;12616;52.470;13.436;2022-12-04T01:25:56;0.50;99.90
24436;DHT22;12616;52.470;13.436;2022-12-04T01:28:24;0.70;99.90
24436;DHT22;12616;52.470;13.436;2022-12-04T01:31:02;0.20;99.90
24436;DHT22;12616;52.470;13.436;2022-12-04T01:33:29;0.50;99.90
24436;DHT22;12616;52.470;13.436;2022-12-04T01:35:58;0.50;99.90
24436;DHT22;12616;52.470;13.436;2022-12-04T01:38:25;0.50;99.90
24436;DHT22;12616;52.470;13.436;2022-12-04T01:40:54;-0.20;99.90
24436;DHT22;12616;52.470;13.436;2022-12-04T01:43:22;0.10;99.90
24436;DHT22;12616;52.470;13.436;2022-12-04T01:45:51;0.50;99.90
24436;DHT22;12616;52.470;13.436;2022-12-04T01:48:23;0.80;99.90
24436;DHT22;12616;52.470;13.436;2022-12-04T01:50:54;0.90;99.90
24436;DHT22;12616;52.470;13.436;2022-12-04T01:53:23;0.40;99.90
24436;DHT22;12616;52.470;13.436;2022-12-04T01:55:51;0.70;99.90
24436;DHT22;12616;52.470;13.436;2022-12-04T01:58:23;0.20;99.90
24436;DHT22;12616;52.470;13.436;2022-12-04T02:00:55;0.50;99.90
24436;DHT22;12616;52.470;13.436;2022-12-04T02:03:23;0.30;99.90
24436;DHT22;12616;52.470;13.436;2022-12-04T02:05:50;0.20;99.90
24436;DHT22;12616;52.470;13.436;2022-12-04T02:08:16;0.70;99.90
24436;DHT22;12616;52.470;13.436;2022-12-04T02:10:50;0.40;99.90
24436;DHT22;12616;52.470;13.436;2022-12-04T02:13:26;0.40;99.90
24436;DHT22;12616;52.470;13.436;2022-12-04T02:16:02;0.30;99.90
24436;DHT22;12616;52.470;13.436;2022-12-04T02:18:36;0.40;99.90
24436;DHT22;12616;52.470;13.436;2022-12-04T02:21:07;0.60;99.90
24436;DHT22;12616;52.470;13.436;2022-12-04T02:23:53;0.40;99.90
24436;DHT22;12616;52.470;13.436;2022-12-04T02:26:32;0.40;99.90
24436;DHT22;12616;52.470;13.436;2022-12-04T02:29:07;0.30;99.90
24436;DHT22;12616;52.470;13.436;2022-12-04T02:31:40;0.30;99.90
24436;DHT22;12616;52.470;13.436;2022-12-04T02:34:13;0.20;99.90
24436;DHT22;12616;52.470;13.436;2022-12-04T02:36:49;0.30;99.90
24436;DHT22;12616;52.470;13.436;2022-12-04T02:39:21;0.20;99.90
24436;DHT22;12616;52.470;13.436;2022-12-04T02:41:55;0.60;99.90
24436;DHT22;12616;52.470;13.436;2022-12-04T02:44:26;0.70;99.90
24436;DHT22;12616;52.470;13.436;2022-12-04T02:46:58;0.50;99.90
24436;DHT22;12616;52.470;13.436;2022-12-04T02:49:31;0.40;99.90
24436;DHT22;12616;52.470;13.436;2022-12-04T02:51:59;0.30;99.90
24436;DHT22;12616;52.470;13.436;2022-12-04T02:54:31;0.50;99.90
24436;DHT22;12616;52.470;13.436;2022-12-04T02:57:01;0.50;99.90
24436;DHT22;12616;52.470;13.436;2022-12-04T02:59:32;0.70;99.90
24436;DHT22;12616;52.470;13.436;2022-12-04T03:02:06;0.70;99.90
24436;DHT22;12616;52.470;13.436;2022-12-04T03:04:35;0.50;99.90
24436;DHT22;12616;52.470;13.436;2022-12-04T03:07:11;0.40;99.90
24436;DHT22;12616;52.470;13.436;2022-12-04T03:09:43;0.50;99.90
24436;DHT22;12616;52.470;13.436;2022-12-04T03:12:17;0.90;99.90
24436;DHT22;12616;52.470;13.436;2022-12-04T03:14:51;0.60;99.90
24436;DHT22;12616;52.470;13.436;2022-12-04T03:17:22;0.50;99.90
24436;DHT22;12616;52.470;13.436;2022-12-04T03:19:55;0.70;99.90
24436;DHT22;12616;52.470;13.436;2022-12-04T03:22:24;0.50;99.90
24436;DHT22;12616;52.470;13.436;2022-12-04T03:24:53;0.50;99.90
24436;DHT22;12616;52.470;13.436;2022-12-04T03:27:27;0.50;99.90
24436;DHT22;12616;52.470;13.436;2022-12-04T03:30:01;0.50;99.90
24436;DHT22;12616;52.470;13.436;2022-12-04T03:32:32;0.80;99.90
24436;DHT22;12616;52.470;13.436;2022-12-04T03:35:05;0.50;99.90
24436;DHT22;12616;52.470;13.436;2022-12-04T03:37:40;0.70;99.90
24436;DHT22;12616;52.470;13.436;2022-12-04T03:40:14;0.50;99.90
24436;DHT22;12616;52.470;13.436;2022-12-04T03:42:46;0.50;99.90
24436;DHT22;12616;52.470;13.436;2022-12-04T03:45:19;0.70;99.90
24436;DHT22;12616;52.470;13.436;2022-12-04T03:47:53;0.70;99.90
24436;DHT22;12616;52.470;13.436;2022-12-04T03:50:30;0.80;99.90
24436;DHT22;12616;52.470;13.436;2022-12-04T03:53:01;0.60;99.90
24436;DHT22;12616;52.470;13.436;2022-12-04T03:55:35;0.50;99.90
24436;DHT22;12616;52.470;13.436;2022-12-04T03:58:08;0.50;99.90
24436;DHT22;12616;52.470;13.436;2022-12-04T04:00:41;0.60;99.90
24436;DHT22;12616;52.470;13.436;2022-12-04T04:03:12;0.60;99.90
24436;DHT22;12616;52.470;13.436;2022-12-04T04:05:43;0.60;99.90
24436;DHT22;12616;52.470;13.436;2022-12-04T04:08:14;0.80;99.90
24436;DHT22;12616;52.470;13.436;2022-12-04T04:10:59;0.40;99.90
24436;DHT22;12616;52.470;13.436;2022-12-04T04:13:32;0.90;99.90
24436;DHT22;12616;52.470;13.436;2022-12-04T04:16:21;0.90;99.90
24436;DHT22;12616;52.470;13.436;2022-12-04T04:19:07;0.70;99.90
24436;DHT22;12616;52.470;13.436;2022-12-04T04:21:52;0.70;99.90
24436;DHT22;12616;52.470;13.436;2022-12-04T04:24:43;0.80;99.90
24436;DHT22;12616;52.470;13.436;2022-12-04T04:27:11;0.90;99.90
24436;DHT22;12616;52.470;13.436;2022-12-04T04:29:38;0.80;99.90
24436;DHT22;12616;52.470;13.436;2022-12-04T04:32:11;0.70;99.90
24436;DHT22;12616;52.470;13.436;2022-12-04T04:34:45;0.90;99.90
24436;DHT22;12616;52.470;13.436;2022-12-04T04:37:20;0.80;99.90
24436;DHT22;12616;52.470;13.436;2022-12-04T04:39:55;0.70;99.90
24436;DHT22;12616;52.470;13.436;2022-12-04T04:42:26;0.70;99.90
24436;DHT22;12616;52.470;13.436;2022-12-04T04:44:58;0.80;99.90
24436;DHT22;12616;52.470;13.436;2022-12-04T04:47:31;0.80;99.90
24436;DHT22;12616;52.470;13.436;2022-12-04T04:50:01;0.70;99.90
24436;DHT22;12616;52.470;13.436;2022-12-04T04:52:29;0.90;99.90
24436;DHT22;12616;52.470;13.436;2022-12-04T04:54:58;0.80;99.90
24436;DHT22;12616;52.470;13.436;2022-12-04T04:57:28;0.60;99.90
24436;DHT22;12616;52.470;13.436;2022-12-04T04:59:55;0.60;99.90
24436;DHT22;12616;52.470;13.436;2022-12-04T05:02:24;0.80;99.90
24436;DHT22;12616;52.470;13.436;2022-12-04T05:04:53;1.10;99.90
24436;DHT22;12616;52.470;13.436;2022-12-04T05:07:19;0.80;99.90
24436;DHT22;12616;52.470;13.436;2022-12-04T05:09:46;0.80;99.90
24436;DHT22;12616;52.470;13.436;2022-12-04T05:12:13;0.50;99.90
24436;DHT22;12616;52.470;13.436;2022-12-04T05:14:40;0.60;99.90
24436;DHT22;12616;52.470;13.436;2022-12-04T05:17:07;0.80;99.90
24436;DHT22;12616;52.470;13.436;2022-12-04T05:19:34;0.70;99.90
24436;DHT22;12616;52.470;13.436;2022-12-04T05:22:22;0.80;99.90
24436;DHT22;12616;52.470;13.436;2022-12-04T05:24:49;0.80;99.90
24436;DHT22;12616;52.470;13.436;2022-12-04T05:27:16;0.50;99.90
24436;DHT22;12616;52.470;13.436;2022-12-04T05:29:43;1.00;99.90
24436;DHT22;12616;52.470;13.436;2022-12-04T05:32:09;0.50;99.90
24436;DHT22;12616;52.470;13.436;2022-12-04T05:34:36;0.70;99.90
24436;DHT22;12616;52.470;13.436;2022-12-04T05:37:03;0.80;99.90
24436;DHT22;12616;52.470;13.436;2022-12-04T05:39:33;0.90;99.90
24436;DHT22;12616;52.470;13.436;2022-12-04T05:42:02;1.10;99.90
24436;DHT22;12616;52.470;13.436;2022-12-04T05:44:28;0.80;99.90
24436;DHT22;12616;52.470;13.436;2022-12-04T05:46:55;0.80;99.90
24436;DHT22;12616;52.470;13.436;2022-12-04T05:49:22;0.80;99.90
24436;DHT22;12616;52.470;13.436;2022-12-04T05:51:49;0.90;99.90
24436;DHT22;12616;52.470;13.436;2022-12-04T05:54:16;1.80;99.90
24436;DHT22;12616;52.470;13.436;2022-12-04T05:56:44;1.00;99.90
24436;DHT22;12616;52.470;13.436;2022-12-04T05:59:11;0.90;99.90
24436;DHT22;12616;52.470;13.436;2022-12-04T06:10:56;0.90;99.90
24436;DHT22;12616;52.470;13.436;2022-12-04T06:20:05;0.80;99.90
24436;DHT22;12616;52.470;13.436;2022-12-04T06:46:19;0.90;99.90
24436;DHT22;12616;52.470;13.436;2022-12-04T07:47:52;1.30;99.90
24436;DHT22;12616;52.470;13.436;2022-12-04T07:50:19;1.20;99.90
24436;DHT22;12616;52.470;13.436;2022-12-04T07:52:46;1.20;99.90
24436;DHT22;12616;52.470;13.436;2022-12-04T07:55:13;0.50;99.90
24436;DHT22;12616;52.470;13.436;2022-12-04T07:57:40;0.90;99.90
24436;DHT22;12616;52.470;13.436;2022-12-04T08:00:08;1.10;99.90
24436;DHT22;12616;52.470;13.436;2022-12-04T08:02:35;1.10;99.90
24436;DHT22;12616;52.470;13.436;2022-12-04T08:05:04;0.90;99.90
24436;DHT22;12616;52.470;13.436;2022-12-04T08:07:31;1.00;99.90
24436;DHT22;12616;52.470;13.436;2022-12-04T08:09:58;1.40;99.90
24436;DHT22;12616;52.470;13.436;2022-12-04T08:12:25;1.10;99.90
24436;DHT22;12616;52.470;13.436;2022-12-04T08:14:52;1.20;99.90
24436;DHT22;12616;52.470;13.436;2022-12-04T08:17:18;1.20;99.90
24436;DHT22;12616;52.470;13.436;2022-12-04T08:19:45;1.20;99.90
24436;DHT22;12616;52.470;13.436;2022-12-04T08:22:13;1.00;99.90
24436;DHT22;12616;52.470;13.436;2022-12-04T08:24:40;0.90;99.90
24436;DHT22;12616;52.470;13.436;2022-12-04T08:27:07;0.80;99.90
24436;DHT22;12616;52.470;13.436;2022-12-04T08:29:35;1.20;99.90
24436;DHT22;12616;52.470;13.436;2022-12-04T08:32:02;1.20;99.90
24436;DHT22;12616;52.470;13.436;2022-12-04T08:34:29;1.30;99.90
24436;DHT22;12616;52.470;13.436;2022-12-04T08:39:26;1.40;99.90
24436;DHT22;12616;52.470;13.436;2022-12-04T08:41:53;1.40;99.90
24436;DHT22;12616;52.470;13.436;2022-12-04T08:44:23;1.10;99.90
24436;DHT22;12616;52.470;13.436;2022-12-04T08:46:51;1.30;99.90
24436;DHT22;12616;52.470;13.436;2022-12-04T08:49:18;1.40;99.90
24436;DHT22;12616;52.470;13.436;2022-12-04T08:51:46;1.40;99.90
24436;DHT22;12616;52.470;13.436;2022-12-04T08:54:15;1.60;99.90
24436;DHT22;12616;52.470;13.436;2022-12-04T08:56:44;1.30;99.90
24436;DHT22;12616;52.470;13.436;2022-12-04T08:59:12;1.60;99.90
24436;DHT22;12616;52.470;13.436;2022-12-04T09:42:01;1.60;99.90
24436;DHT22;12616;52.470;13.436;2022-12-04T09:47:44;1.60;99.90
24436;DHT22;12616;52.470;13.436;2022-12-04T09:52:51;1.50;99.90
24436;DHT22;12616;52.470;13.436;2022-12-04T09:55:25;1.60;99.90
24436;DHT22;12616;52.470;13.436;2022-12-04T09:57:54;1.40;99.90
24436;DHT22;12616;52.470;13.436;2022-12-04T10:00:24;1.40;99.90
24436;DHT22;12616;52.470;13.436;2022-12-04T10:02:55;1.90;99.90
24436;DHT22;12616;52.470;13.436;2022-12-04T10:05:37;2.70;99.90
24436;DHT22;12616;52.470;13.436;2022-12-04T10:08:09;1.80;99.90
24436;DHT22;12616;52.470;13.436;2022-12-04T10:10:42;1.60;99.90
24436;DHT22;12616;52.470;13.436;2022-12-04T10:13:31;1.60;99.90
24436;DHT22;12616;52.470;13.436;2022-12-04T10:16:10;1.60;99.90
24436;DHT22;12616;52.470;13.436;2022-12-04T10:18:46;1.90;99.90
24436;DHT22;12616;52.470;13.436;2022-12-04T10:21:34;1.00;99.90
24436;DHT22;12616;52.470;13.436;2022-12-04T10:24:20;1.90;99.90
24436;DHT22;12616;52.470;13.436;2022-12-04T10:26:54;1.40;99.90
24436;DHT22;12616;52.470;13.436;2022-12-04T10:29:26;1.80;99.90
24436;DHT22;12616;52.470;13.436;2022-12-04T10:32:05;1.50;99.90
24436;DHT22;12616;52.470;13.436;2022-12-04T10:34:39;1.80;99.90
24436;DHT22;12616;52.470;13.436;2022-12-04T10:37:11;2.00;99.90
24436;DHT22;12616;52.470;13.436;2022-12-04T10:39:41;1.70;99.90
24436;DHT22;12616;52.470;13.436;2022-12-04T10:42:20;2.00;99.90
24436;DHT22;12616;52.470;13.436;2022-12-04T10:44:49;1.70;99.90
24436;DHT22;12616;52.470;13.436;2022-12-04T10:47:17;1.60;99.90
24436;DHT22;12616;52.470;13.436;2022-12-04T10:49:46;1.70;99.90
24436;DHT22;12616;52.470;13.436;2022-12-04T10:52:14;1.60;99.90
24436;DHT22;12616;52.470;13.436;2022-12-04T10:54:45;1.90;99.90
24436;DHT22;12616;52.470;13.436;2022-12-04T10:57:15;1.70;99.90
24436;DHT22;12616;52.470;13.436;2022-12-04T10:59:48;1.80;99.90
24436;DHT22;12616;52.470;13.436;2022-12-04T11:02:19;1.80;99.90
24436;DHT22;12616;52.470;13.436;2022-12-04T11:04:53;1.60;99.90
24436;DHT22;12616;52.470;13.436;2022-12-04T11:07:22;1.70;99.90
24436;DHT22;12616;52.470;13.436;2022-12-04T11:09:55;1.70;99.90
24436;DHT22;12616;52.470;13.436;2022-12-04T11:12:24;2.20;99.90
24436;DHT22;12616;52.470;13.436;2022-12-04T11:15:02;1.60;99.90
24436;DHT22;12616;52.470;13.436;2022-12-04T11:17:34;1.50;99.90
24436;DHT22;12616;52.470;13.436;2022-12-04T11:20:05;1.80;99.90
24436;DHT22;12616;52.470;13.436;2022-12-04T11:22:33;1.60;99.90
24436;DHT22;12616;52.470;13.436;2022-12-04T11:25:01;1.90;99.90
24436;DHT22;12616;52.470;13.436;2022-12-04T11:27:31;2.00;99.90
24436;DHT22;12616;52.470;13.436;2022-12-04T11:30:01;2.00;99.90
24436;DHT22;12616;52.470;13.436;2022-12-04T11:32:30;2.10;99.90
24436;DHT22;12616;52.470;13.436;2022-12-04T11:35:02;1.90;99.90
24436;DHT22;12616;52.470;13.436;2022-12-04T11:37:33;2.20;99.90
24436;DHT22;12616;52.470;13.436;2022-12-04T11:40:02;2.20;99.90
24436;DHT22;12616;52.470;13.436;2022-12-04T11:42:32;1.90;99.90
24436;DHT22;12616;52.470;13.436;2022-12-04T11:45:00;1.70;99.90
24436;DHT22;12616;52.470;13.436;2022-12-04T11:47:30;2.20;99.90
24436;DHT22;12616;52.470;13.436;2022-12-04T11:50:00;1.90;99.90
24436;DHT22;12616;52.470;13.436;2022-12-04T11:52:37;1.80;99.90
24436;DHT22;12616;52.470;13.436;2022-12-04T11:55:14;2.00;99.90
24436;DHT22;12616;52.470;13.436;2022-12-04T11:57:48;1.90;99.90
24436;DHT22;12616;52.470;13.436;2022-12-04T12:00:18;2.20;99.90
24436;DHT22;12616;52.470;13.436;2022-12-04T12:03:11;2.10;99.90
24436;DHT22;12616;52.470;13.436;2022-12-04T12:11:24;2.10;99.90
24436;DHT22;12616;52.470;13.436;2022-12-04T12:13:57;2.00;99.90
24436;DHT22;12616;52.470;13.436;2022-12-04T12:16:33;2.30;99.90
24436;DHT22;12616;52.470;13.436;2022-12-04T12:19:15;1.80;99.90
24436;DHT22;12616;52.470;13.436;2022-12-04T12:21:52;2.00;99.90
24436;DHT22;12616;52.470;13.436;2022-12-04T12:24:26;2.20;99.90
24436;DHT22;12616;52.470;13.436;2022-12-04T12:27:06;1.80;99.90
24436;DHT22;12616;52.470;13.436;2022-12-04T12:29:53;2.00;99.90
24436;DHT22;12616;52.470;13.436;2022-12-04T12:32:38;2.00;99.90
24436;DHT22;12616;52.470;13.436;2022-12-04T12:35:17;1.30;99.90
24436;DHT22;12616;52.470;13.436;2022-12-04T12:37:48;2.80;99.90
24436;DHT22;12616;52.470;13.436;2022-12-04T12:40:25;2.00;99.90
24436;DHT22;12616;52.470;13.436;2022-12-04T12:42:58;2.10;99.90
24436;DHT22;12616;52.470;13.436;2022-12-04T12:45:31;2.30;99.90
24436;DHT22;12616;52.470;13.436;2022-12-04T12:48:07;2.00;99.90
24436;DHT22;12616;52.470;13.436;2022-12-04T12:50:41;2.10;99.90
24436;DHT22;12616;52.470;13.436;2022-12-04T12:53:12;2.00;99.90
24436;DHT22;12616;52.470;13.436;2022-12-04T12:55:44;2.10;99.90
24436;DHT22;12616;52.470;13.436;2022-12-04T12:58:16;1.90;99.90
24436;DHT22;12616;52.470;13.436;2022-12-04T13:00:53;2.10;99.90
24436;DHT22;12616;52.470;13.436;2022-12-04T13:03:27;1.80;99.90
24436;DHT22;12616;52.470;13.436;2022-12-04T13:06:00;2.40;99.90
24436;DHT22;12616;52.470;13.436;2022-12-04T13:08:31;2.00;99.90
24436;DHT22;12616;52.470;13.436;2022-12-04T13:11:02;1.90;99.90
24436;DHT22;12616;52.470;13.436;2022-12-04T13:13:32;1.90;99.90
24436;DHT22;12616;52.470;13.436;2022-12-04T13:16:07;2.20;99.90
24436;DHT22;12616;52.470;13.436;2022-12-04T13:18:39;1.90;99.90
24436;DHT22;12616;52.470;13.436;2022-12-04T13:21:14;2.20;99.90
24436;DHT22;12616;52.470;13.436;2022-12-04T13:23:53;2.20;99.90
24436;DHT22;12616;52.470;13.436;2022-12-04T13:26:34;2.20;99.90
24436;DHT22;12616;52.470;13.436;2022-12-04T13:29:12;2.30;99.90
24436;DHT22;12616;52.470;13.436;2022-12-04T13:31:48;2.30;99.90
24436;DHT22;12616;52.470;13.436;2022-12-04T13:34:45;2.50;99.90
24436;DHT22;12616;52.470;13.436;2022-12-04T13:37:33;2.40;99.90
24436;DHT22;12616;52.470;13.436;2022-12-04T13:40:27;2.30;99.90
24436;DHT22;12616;52.470;13.436;2022-12-04T13:43:16;2.50;99.90
24436;DHT22;12616;52.470;13.436;2022-12-04T13:45:46;2.30;99.90
24436;DHT22;12616;52.470;13.436;2022-12-04T13:48:26;2.30;99.90
24436;DHT22;12616;52.470;13.436;2022-12-04T13:51:00;2.30;99.90
24436;DHT22;12616;52.470;13.436;2022-12-04T13:53:30;2.60;99.90
24436;DHT22;12616;52.470;13.436;2022-12-04T13:55:58;2.60;99.90
24436;DHT22;12616;52.470;13.436;2022-12-04T13:58:28;2.50;99.90
24436;DHT22;12616;52.470;13.436;2022-12-04T14:01:02;2.40;99.90
24436;DHT22;12616;52.470;13.436;2022-12-04T14:03:33;2.30;99.90
24436;DHT22;12616;52.470;13.436;2022-12-04T14:06:21;2.30;99.90
24436;DHT22;12616;52.470;13.436;2022-12-04T14:08:54;2.30;99.90
24436;DHT22;12616;52.470;13.436;2022-12-04T14:11:23;2.60;99.90
24436;DHT22;12616;52.470;13.436;2022-12-04T14:13:51;2.30;99.90
24436;DHT22;12616;52.470;13.436;2022-12-04T14:16:22;2.00;99.90
24436;DHT22;12616;52.470;13.436;2022-12-04T14:21:44;2.30;99.90
24436;DHT22;12616;52.470;13.436;2022-12-04T14:24:29;2.40;99.90
24436;DHT22;12616;52.470;13.436;2022-12-04T14:29:48;2.40;99.90
24436;DHT22;12616;52.470;13.436;2022-12-04T14:32:32;2.40;99.90
24436;DHT22;12616;52.470;13.436;2022-12-04T14:37:35;2.30;99.90
24436;DHT22;12616;52.470;13.436;2022-12-04T14:40:04;2.30;99.90
24436;DHT22;12616;52.470;13.436;2022-12-04T14:42:38;2.40;99.90
24436;DHT22;12616;52.470;13.436;2022-12-04T14:48:46;2.30;99.90
24436;DHT22;12616;52.470;13.436;2022-12-04T14:51:20;2.30;99.90
24436;DHT22;12616;52.470;13.436;2022-12-04T14:53:57;2.30;99.90
24436;DHT22;12616;52.470;13.436;2022-12-04T14:56:46;2.20;99.90
24436;DHT22;12616;52.470;13.436;2022-12-04T14:59:18;2.20;99.90
24436;DHT22;12616;52.470;13.436;2022-12-04T15:01:47;2.10;99.90
24436;DHT22;12616;52.470;13.436;2022-12-04T15:04:21;2.40;99.90
24436;DHT22;12616;52.470;13.436;2022-12-04T15:06:50;2.10;99.90
24436;DHT22;12616;52.470;13.436;2022-12-04T15:09:20;2.30;99.90
24436;DHT22;12616;52.470;13.436;2022-12-04T15:12:18;2.50;99.90
24436;DHT22;12616;52.470;13.436;2022-12-04T15:15:07;2.30;99.90
24436;DHT22;12616;52.470;13.436;2022-12-04T15:20:17;2.10;99.90
24436;DHT22;12616;52.470;13.436;2022-12-04T15:22:46;2.30;99.90
24436;DHT22;12616;52.470;13.436;2022-12-04T15:25:18;2.30;99.90
24436;DHT22;12616;52.470;13.436;2022-12-04T15:27:46;2.30;99.90
24436;DHT22;12616;52.470;13.436;2022-12-04T15:30:18;2.50;99.90
24436;DHT22;12616;52.470;13.436;2022-12-04T15:32:46;2.40;99.90
24436;DHT22;12616;52.470;13.436;2022-12-04T15:35:19;2.50;99.90
24436;DHT22;12616;52.470;13.436;2022-12-04T15:37:47;2.60;99.90
24436;DHT22;12616;52.470;13.436;2022-12-04T15:40:20;2.40;99.90
24436;DHT22;12616;52.470;13.436;2022-12-04T15:42:47;2.60;99.90
24436;DHT22;12616;52.470;13.436;2022-12-04T15:45:30;2.50;99.90
24436;DHT22;12616;52.470;13.436;2022-12-04T15:55:30;2.40;99.90
24436;DHT22;12616;52.470;13.436;2022-12-04T15:57:59;2.50;99.90
24436;DHT22;12616;52.470;13.436;2022-12-04T16:00:38;2.50;99.90
24436;DHT22;12616;52.470;13.436;2022-12-04T16:03:22;2.50;99.90
24436;DHT22;12616;52.470;13.436;2022-12-04T16:08:32;2.50;99.90
24436;DHT22;12616;52.470;13.436;2022-12-04T16:11:29;2.40;99.90
24436;DHT22;12616;52.470;13.436;2022-12-04T16:16:43;2.50;99.90
24436;DHT22;12616;52.470;13.436;2022-12-04T16:19:35;2.50;99.90
24436;DHT22;12616;52.470;13.436;2022-12-04T16:22:10;2.50;99.90
24436;DHT22;12616;52.470;13.436;2022-12-04T16:32:24;2.50;99.90
24436;DHT22;12616;52.470;13.436;2022-12-04T16:42:25;2.50;99.90
24436;DHT22;12616;52.470;13.436;2022-12-04T16:55:15;2.40;99.90
24436;DHT22;12616;52.470;13.436;2022-12-04T17:02:44;2.50;99.90
24436;DHT22;12616;52.470;13.436;2022-12-04T17:05:24;2.50;99.90
24436;DHT22;12616;52.470;13.436;2022-12-04T17:15:15;2.50;99.90
24436;DHT22;12616;52.470;13.436;2022-12-04T17:17:44;2.30;99.90
24436;DHT22;12616;52.470;13.436;2022-12-04T17:20:15;2.50;99.90
24436;DHT22;12616;52.470;13.436;2022-12-04T17:43:05;2.50;99.90
24436;DHT22;12616;52.470;13.436;2022-12-04T18:09:10;2.60;99.90
24436;DHT22;12616;52.470;13.436;2022-12-04T18:11:43;2.60;99.90
24436;DHT22;12616;52.470;13.436;2022-12-04T18:38:57;2.70;99.90
24436;DHT22;12616;52.470;13.436;2022-12-04T18:44:08;2.70;99.90
24436;DHT22;12616;52.470;13.436;2022-12-04T18:51:41;2.70;99.90
24436;DHT22;12616;52.470;13.436;2022-12-04T18:54:13;2.70;99.90
24436;DHT22;12616;52.470;13.436;2022-12-04T18:59:22;2.70;99.90
24436;DHT22;12616;52.470;13.436;2022-12-04T19:02:24;2.70;99.90
24436;DHT22;12616;52.470;13.436;2022-12-04T19:14:53;2.80;99.90
24436;DHT22;12616;52.470;13.436;2022-12-04T19:36:13;2.80;99.90
24436;DHT22;12616;52.470;13.436;2022-12-04T19:55:28;3.00;99.90
24436;DHT22;12616;52.470;13.436;2022-12-04T20:18:38;3.00;99.90
24436;DHT22;12616;52.470;13.436;2022-12-04T20:35:54;2.80;99.90
24436;DHT22;12616;52.470;13.436;2022-12-04T20:38:22;3.00;99.90
24436;DHT22;12616;52.470;13.436;2022-12-04T20:40:49;3.30;99.90
24436;DHT22;12616;52.470;13.436;2022-12-04T20:45:46;3.10;99.90
24436;DHT22;12616;52.470;13.436;2022-12-04T20:48:12;2.60;99.90
24436;DHT22;12616;52.470;13.436;2022-12-04T20:50:39;3.10;99.90
24436;DHT22;12616;52.470;13.436;2022-12-04T20:53:10;3.10;99.90
24436;DHT22;12616;52.470;13.436;2022-12-04T20:55:39;3.00;99.90
24436;DHT22;12616;52.470;13.436;2022-12-04T20:58:06;2.80;99.90
24436;DHT22;12616;52.470;13.436;2022-12-04T21:00:33;3.00;99.90
24436;DHT22;12616;52.470;13.436;2022-12-04T21:03:00;2.50;99.90
24436;DHT22;12616;52.470;13.436;2022-12-04T21:05:27;2.90;99.90
24436;DHT22;12616;52.470;13.436;2022-12-04T21:07:53;3.10;99.90
24436;DHT22;12616;52.470;13.436;2022-12-04T21:10:23;3.10;99.90
24436;DHT22;12616;52.470;13.436;2022-12-04T21:12:51;3.00;99.90
24436;DHT22;12616;52.470;13.436;2022-12-04T21:15:35;3.10;99.90
24436;DHT22;12616;52.470;13.436;2022-12-04T21:18:19;3.30;99.90
24436;DHT22;12616;52.470;13.436;2022-12-04T21:20:47;2.80;99.90
24436;DHT22;12616;52.470;13.436;2022-12-04T21:23:14;3.00;99.90
24436;DHT22;12616;52.470;13.436;2022-12-04T21:25:41;3.50;99.90
24436;DHT22;12616;52.470;13.436;2022-12-04T21:28:09;3.30;99.90
24436;DHT22;12616;52.470;13.436;2022-12-04T21:30:36;3.00;99.90
24436;DHT22;12616;52.470;13.436;2022-12-04T21:33:03;3.00;99.90
24436;DHT22;12616;52.470;13.436;2022-12-04T21:35:30;3.00;99.90
24436;DHT22;12616;52.470;13.436;2022-12-04T21:37:57;3.40;99.90
24436;DHT22;12616;52.470;13.436;2022-12-04T21:40:24;3.00;99.90
24436;DHT22;12616;52.470;13.436;2022-12-04T21:42:51;3.00;99.90
24436;DHT22;12616;52.470;13.436;2022-12-04T21:45:19;3.00;99.90
24436;DHT22;12616;52.470;13.436;2022-12-04T21:50:13;3.00;99.90
24436;DHT22;12616;52.470;13.436;2022-12-04T21:52:40;3.00;99.90
24436;DHT22;12616;52.470;13.436;2022-12-04T21:55:07;2.80;99.90
24436;DHT22;12616;52.470;13.436;2022-12-04T21:57:34;3.00;99.90
24436;DHT22;12616;52.470;13.436;2022-12-04T22:00:01;2.90;99.90
24436;DHT22;12616;52.470;13.436;2022-12-04T22:02:29;3.00;99.90
24436;DHT22;12616;52.470;13.436;2022-12-04T22:04:57;3.00;99.90
24436;DHT22;12616;52.470;13.436;2022-12-04T22:07:23;3.00;99.90
24436;DHT22;12616;52.470;13.436;2022-12-04T22:09:50;3.10;99.90
24436;DHT22;12616;52.470;13.436;2022-12-04T22:12:17;3.00;99.90
24436;DHT22;12616;52.470;13.436;2022-12-04T22:14:44;3.00;99.90
24436;DHT22;12616;52.470;13.436;2022-12-04T22:17:11;3.00;99.90
24436;DHT22;12616;52.470;13.436;2022-12-04T22:19:39;3.00;99.90
24436;DHT22;12616;52.470;13.436;2022-12-04T22:22:06;3.20;99.90
24436;DHT22;12616;52.470;13.436;2022-12-04T22:24:33;3.20;99.90